Map

Track Data

SID SEASON NUMBER BASIN SUBBASIN NAME ISO_TIME NATURE LAT LON WMO_WIND WMO_PRES WMO_AGENCY TRACK_TYPE DIST2LAND LANDFALL IFLAG USA_AGENCY USA_ATCF_ID USA_LAT USA_LON USA_RECORD USA_STATUS USA_WIND USA_PRES USA_SSHS USA_R34_NE USA_R34_SE USA_R34_SW USA_R34_NW USA_R50_NE USA_R50_SE USA_R50_SW USA_R50_NW USA_R64_NE USA_R64_SE USA_R64_SW USA_R64_NW USA_POCI USA_ROCI USA_RMW USA_EYE TOKYO_LAT TOKYO_LON TOKYO_GRADE TOKYO_WIND TOKYO_PRES TOKYO_R50_DIR TOKYO_R50_LONG TOKYO_R50_SHORT TOKYO_R30_DIR TOKYO_R30_LONG TOKYO_R30_SHORT TOKYO_LAND CMA_LAT CMA_LON CMA_CAT CMA_WIND CMA_PRES HKO_LAT HKO_LON HKO_CAT HKO_WIND HKO_PRES NEWDELHI_LAT NEWDELHI_LON NEWDELHI_GRADE NEWDELHI_WIND NEWDELHI_PRES NEWDELHI_CI NEWDELHI_DP NEWDELHI_POCI REUNION_LAT REUNION_LON REUNION_TYPE REUNION_WIND REUNION_PRES REUNION_TNUM REUNION_CI REUNION_RMW REUNION_R34_NE REUNION_R34_SE REUNION_R34_SW REUNION_R34_NW REUNION_R50_NE REUNION_R50_SE REUNION_R50_SW REUNION_R50_NW REUNION_R64_NE REUNION_R64_SE REUNION_R64_SW REUNION_R64_NW BOM_LAT BOM_LON BOM_TYPE BOM_WIND BOM_PRES BOM_TNUM BOM_CI BOM_RMW BOM_R34_NE BOM_R34_SE BOM_R34_SW BOM_R34_NW BOM_R50_NE BOM_R50_SE BOM_R50_SW BOM_R50_NW BOM_R64_NE BOM_R64_SE BOM_R64_SW BOM_R64_NW BOM_ROCI BOM_POCI BOM_EYE BOM_POS_METHOD BOM_PRES_METHOD NADI_LAT NADI_LON NADI_CAT NADI_WIND NADI_PRES WELLINGTON_LAT WELLINGTON_LON WELLINGTON_WIND WELLINGTON_PRES DS824_LAT DS824_LON DS824_STAGE DS824_WIND DS824_PRES TD9636_LAT TD9636_LON TD9636_STAGE TD9636_WIND TD9636_PRES TD9635_LAT TD9635_LON TD9635_WIND TD9635_PRES TD9635_ROCI NEUMANN_LAT NEUMANN_LON NEUMANN_CLASS NEUMANN_WIND NEUMANN_PRES MLC_LAT MLC_LON MLC_CLASS MLC_WIND MLC_PRES USA_GUST BOM_GUST BOM_GUST_PER REUNION_GUST REUNION_GUST_PER USA_SEAHGT USA_SEARAD_NE USA_SEARAD_SE USA_SEARAD_SW USA_SEARAD_NW STORM_SPEED STORM_DIR
1996078S12072 1996 24 SI MM GUYLIANNE 1996-03-17 12:00:00 TS -12.0000 71.9000 20 1004 reunion main 1766 1708 _____O________ -1 -12.0000 71.9000 2 20 1004 1.50000 1.50000 11 243
1996078S12072 1996 24 SI MM GUYLIANNE 1996-03-17 15:00:00 TS -12.2553 71.3902 main 1702 1568 _____P________ -1 -12.2553 71.3902 2 20 1004 18 234
1996078S12072 1996 24 SI MM GUYLIANNE 1996-03-17 18:00:00 TS -13.0600 70.3800 20 1004 reunion main 1562 1495 O____O______O_ jtwc_sh SH221996 -13.9000 69.6000 25 -1 -12.5000 70.9000 2 20 1004 1.50000 1.50000 -13.9000 69.6000 TC 25 19 237
1996078S12072 1996 24 SI MM GUYLIANNE 1996-03-17 21:00:00 TS -13.3099 69.7462 main 1486 1420 P____P______P_ SH221996 -13.8977 69.0625 25 -1 -12.7222 70.4299 2 22 1003 -13.8977 69.0625 TC 25 14 251
1996078S12072 1996 24 SI MM GUYLIANNE 1996-03-18 00:00:00 TS -13.5000 69.0600 25 1002 reunion main 1420 1350 O____O______O_ jtwc_sh SH221996 -13.9000 68.5000 25 -1 -12.9000 69.9000 2 25 1002 2.00000 2.00000 -13.9000 68.5000 TC 25 14 257
1996078S12072 1996 24 SI MM GUYLIANNE 1996-03-18 03:00:00 TS -13.6150 68.3459 main 1341 1288 P____P______P_ SH221996 -13.9075 67.9001 25 -1 -13.0300 69.2375 2 25 1002 -13.9075 67.9001 TC 25 13 264
1996078S12072 1996 24 SI MM GUYLIANNE 1996-03-18 06:00:00 TS -13.6333 67.7000 25 1002 reunion main 1288 1236 O____O______O_ jtwc_sh SH221996 -13.9000 67.3000 25 -1 -13.1000 68.5000 2 25 1002 2.00000 2.00000 -13.9000 67.3000 TC 25 12 270
1996078S12072 1996 24 SI MM GUYLIANNE 1996-03-18 09:00:00 TS -13.6199 67.0733 main 1236 1185 P____P______P_ SH221996 -13.8649 66.7350 25 -1 -13.1299 67.7500 2 25 1002 -13.8649 66.7350 TC 25 12 273
1996078S12072 1996 24 SI MM GUYLIANNE 1996-03-18 12:00:00 TS -13.5667 66.4667 25 1002 reunion main 1185 1143 O____O______O_ jtwc_sh SH221996 -13.8000 66.2000 25 -1 -13.1000 67.0000 2 25 1002 2.00000 2.00000 -13.8000 66.2000 TC 25 12 277
1996078S12072 1996 24 SI MM GUYLIANNE 1996-03-18 15:00:00 TS -13.4790 65.8900 main 1143 1110 P____P______P_ SH221996 -13.7149 65.6925 25 -1 -13.0073 66.2849 2 25 1001 -13.7149 65.6925 TC 25 11 280
1996078S12072 1996 24 SI MM GUYLIANNE 1996-03-18 18:00:00 TS -13.3667 65.3333 25 1000 reunion main 1102 1072 O____O______O_ jtwc_sh SH221996 -13.6000 65.2000 25 -1 -12.9000 65.6000 2 25 1000 2.00000 2.00000 -13.6000 65.2000 TC 25 11 282
1996078S12072 1996 24 SI MM GUYLIANNE 1996-03-18 21:00:00 TS -13.2424 64.7733 main 1080 1051 P____P______P_ SH221996 -13.4499 64.7000 25 -1 -12.8274 64.9200 2 25 1000 -13.4499 64.7000 TC 25 11 282
1996078S12072 1996 24 SI MM GUYLIANNE 1996-03-19 00:00:00 TS -13.1333 64.2333 25 1000 reunion main 1045 1010 O____O______O_ jtwc_sh SH221996 -13.3000 64.2000 25 -1 -12.8000 64.3000 2 25 1000 2.00000 2.00000 -13.3000 64.2000 TC 25 10 280
1996078S12072 1996 24 SI MM GUYLIANNE 1996-03-19 03:00:00 TS -13.0682 63.7184 main 1010 993 P____P______P_ SH221996 -13.1849 63.6925 27 -1 -12.8348 63.7701 2 25 1000 -13.1849 63.6925 TC 27 10 276
1996078S12072 1996 24 SI MM GUYLIANNE 1996-03-19 06:00:00 TS -13.0333 63.2333 25 1000 reunion main 987 962 O____O______O_ jtwc_sh SH221996 -13.1000 63.2000 30 -1 -12.9000 63.3000 2 25 1000 2.00000 2.00000 -13.1000 63.2000 TC 30 9 274
1996078S12072 1996 24 SI MM GUYLIANNE 1996-03-19 09:00:00 TS -12.9991 62.7733 main 962 939 P____P______P_ SH221996 -13.0274 62.7425 30 -1 -12.9424 62.8349 2 25 1000 -13.0274 62.7425 TC 30 9 272
1996078S12072 1996 24 SI MM GUYLIANNE 1996-03-19 12:00:00 TS -13.0000 62.3333 25 1000 reunion main 933 911 O____O______O_ jtwc_sh SH221996 -13.0000 62.3000 30 -1 -13.0000 62.4000 2 25 1000 2.00000 2.00000 -13.0000 62.3000 TC 30 8 267
1996078S12072 1996 24 SI MM GUYLIANNE 1996-03-19 15:00:00 TS -13.0490 61.9075 main 911 881 P____P______P_ SH221996 -13.0274 61.8575 30 -1 -13.0923 62.0075 2 25 1000 -13.0274 61.8575 TC 30 9 261
1996078S12072 1996 24 SI MM GUYLIANNE 1996-03-19 18:00:00 TS -13.1333 61.4667 25 1000 reunion main 881 848 O____O______O_ jtwc_sh SH221996 -13.1000 61.4000 30 -1 -13.2000 61.6000 2 25 1000 2.00000 2.00000 -13.1000 61.4000 TC 30 9 260
1996078S12072 1996 24 SI MM GUYLIANNE 1996-03-19 21:00:00 TS -13.2158 60.9716 main 848 817 P____P______P_ SH221996 -13.1774 60.9074 30 -1 -13.2926 61.1000 2 25 1000 -13.1774 60.9074 TC 30 10 258
1996078S12072 1996 24 SI MM GUYLIANNE 1996-03-20 00:00:00 TS -13.3333 60.4667 25 1000 reunion main 817 778 O____O______O_ jtwc_sh SH221996 -13.3000 60.4000 30 -1 -13.4000 60.6000 2 25 1000 2.00000 2.00000 -13.3000 60.4000 TC 30 10 254
1996078S12072 1996 24 SI MM GUYLIANNE 1996-03-20 03:00:00 TS -13.4967 59.9750 main 778 744 P____P______P_ SH221996 -13.4775 59.8775 30 -1 -13.5349 60.1700 2 25 1000 -13.4775 59.8775 TC 30 10 248
1996078S12072 1996 24 SI MM GUYLIANNE 1996-03-20 06:00:00 TS -13.7000 59.5333 25 1000 reunion main 741 711 O____O______O_ jtwc_sh SH221996 -13.7000 59.4000 30 -1 -13.7000 59.8000 2 25 1000 2.00000 2.00000 -13.7000 59.4000 TC 30 9 242
1996078S12072 1996 24 SI MM GUYLIANNE 1996-03-20 09:00:00 TS -13.9182 59.1699 main 711 672 P____P______P_ SH221996 -13.9349 59.0124 30 -1 -13.8849 59.4849 2 26 998 -13.9349 59.0124 TC 30 8 234
1996078S12072 1996 24 SI MM GUYLIANNE 1996-03-20 12:00:00 TS -14.1667 58.8667 28 997 reunion main 672 644 O____O______O_ jtwc_sh SH221996 -14.2000 58.7000 30 -1 -14.1000 59.2000 2 28 997 2.50000 2.50000 -14.2000 58.7000 TC 30 8 228
1996078S12072 1996 24 SI MM GUYLIANNE 1996-03-20 15:00:00 TS -14.4375 58.5775 main 644 607 P____P______P_ SH221996 -14.4925 58.4200 30 -1 -14.3275 58.8924 2 28 997 -14.4925 58.4200 TC 30 8 222
1996078S12072 1996 24 SI MM GUYLIANNE 1996-03-20 18:00:00 TS -14.7333 58.3333 28 997 reunion main 607 572 O____O______O_ jtwc_sh SH221996 -14.8000 58.2000 30 -1 -14.6000 58.6000 2 28 997 2.50000 2.50000 -14.8000 58.2000 TC 30 7 216
1996078S12072 1996 24 SI MM GUYLIANNE 1996-03-20 21:00:00 TS -15.0450 58.1300 main 572 538 P____P______P_ SH221996 -15.0925 58.0274 30 -1 -14.9500 58.3350 2 29 996 -15.0925 58.0274 TC 30 7 209
1996078S12072 1996 24 SI MM GUYLIANNE 1996-03-21 00:00:00 TS -15.3667 57.9667 30 995 reunion main 526 492 O____O______O_ jtwc_sh SH221996 -15.4000 57.9000 30 -1 -15.3000 58.1000 2 30 995 2.50000 2.50000 -15.4000 57.9000 TC 30 7 205
1996078S12072 1996 24 SI MM GUYLIANNE 1996-03-21 03:00:00 TS -15.6858 57.8183 main 492 458 P____P______P_ SH221996 -15.7425 57.7924 30 -1 -15.5725 57.8700 2 30 995 -15.7425 57.7924 TC 30 7 202
1996078S12072 1996 24 SI MM GUYLIANNE 1996-03-21 06:00:00 TS -16.0000 57.7000 30 995 reunion main 458 425 O____O______O_ jtwc_sh SH221996 -16.1000 57.7000 30 -1 -15.8000 57.7000 2 30 995 2.50000 2.50000 -16.1000 57.7000 TC 30 7 198
1996078S12072 1996 24 SI MM GUYLIANNE 1996-03-21 09:00:00 TS -16.3125 57.6066 main 425 391 P____P______P_ SH221996 -16.4650 57.5925 30 -1 -16.0075 57.6349 2 30 995 -16.4650 57.5925 TC 30 6 195
1996078S12072 1996 24 SI MM GUYLIANNE 1996-03-21 12:00:00 TS -16.6000 57.5333 30 995 reunion main 391 369 O____O______O_ jtwc_sh SH221996 -16.8000 57.5000 30 -1 -16.2000 57.6000 2 30 995 2.50000 2.50000 -16.8000 57.5000 TC 30 6 195
1996078S12072 1996 24 SI MM GUYLIANNE 1996-03-21 15:00:00 TS -16.8408 57.4542 main 369 335 P____P______P_ SH221996 -17.0650 57.4350 30 -1 -16.3925 57.4925 2 30 995 -17.0650 57.4350 TC 30 5 195
1996078S12072 1996 24 SI MM GUYLIANNE 1996-03-21 18:00:00 TS -17.0667 57.4000 30 995 reunion main 335 313 O____O______O_ jtwc_sh SH221996 -17.3000 57.4000 30 -1 -16.6000 57.4000 2 30 995 2.50000 2.50000 -17.3000 57.4000 TC 30 5 190
1996078S12072 1996 24 SI MM GUYLIANNE 1996-03-21 21:00:00 TS -17.2991 57.3726 main 313 291 P____P______P_ SH221996 -17.5350 57.3701 30 -1 -16.8275 57.3775 2 32 993 -17.5350 57.3701 TC 30 5 178
1996078S12072 1996 24 SI MM GUYLIANNE 1996-03-22 00:00:00 TS -17.5667 57.4000 35 992 reunion main 279 246 O____O______O_ jtwc_sh SH221996 -17.8000 57.4000 30 -1 -17.1000 57.4000 3 35 992 3.00000 3.00000 -17.8000 57.4000 TC 30 6 169
1996078S12072 1996 24 SI MM GUYLIANNE 1996-03-22 03:00:00 TS -17.9042 57.4916 main 246 212 P____P______P_ SH221996 -18.1425 57.5274 32 -1 -17.4275 57.4201 3 35 992 -18.1425 57.5274 TC 32 7 163
1996078S12072 1996 24 SI MM GUYLIANNE 1996-03-22 06:00:00 TS -18.2667 57.6333 35 992 reunion main 201 168 O____O______O_ jtwc_sh SH221996 -18.5000 57.7000 35 0 -17.8000 57.5000 3 35 992 3.00000 3.00000 -18.5000 57.7000 TC 35 8 157
1996078S12072 1996 24 SI MM GUYLIANNE 1996-03-22 09:00:00 TS -18.5950 57.8025 main 168 135 P____P______P_ SH221996 -18.8000 57.8576 35 0 -18.1851 57.6923 3 35 992 -18.8000 57.8576 TC 35 7 155
1996078S12072 1996 24 SI MM GUYLIANNE 1996-03-22 12:00:00 TS -18.9333 57.9667 35 992 reunion main 137 98 O____O______O_ jtwc_sh SH221996 -19.1000 58.0000 35 0 -18.6000 57.9000 3 35 992 3.00000 3.00000 -19.1000 58.0000 TC 35 8 161
1996078S12072 1996 24 SI MM GUYLIANNE 1996-03-22 15:00:00 TS -19.3241 58.0743 main 98 68 P____P______P_ SH221996 -19.4650 58.1075 35 0 -19.0424 58.0077 3 35 992 -19.4650 58.1075 TC 35 8 166
1996078S12072 1996 24 SI MM GUYLIANNE 1996-03-22 18:00:00 TS -19.7000 58.1667 35 992 reunion main 68 56 O____O______O_ jtwc_sh SH221996 -19.8000 58.2000 35 0 -19.5000 58.1000 3 35 992 2.50000 3.00000 -19.8000 58.2000 TC 35 7 164
1996078S12072 1996 24 SI MM GUYLIANNE 1996-03-22 21:00:00 TS -19.9983 58.2834 main 62 56 P____P______P_ SH221996 -20.0075 58.3001 35 0 -19.9800 58.2499 3 35 992 -20.0075 58.3001 TC 35 6 159
1996078S12072 1996 24 SI MM GUYLIANNE 1996-03-23 00:00:00 TS -20.2667 58.4000 35 992 reunion main 62 62 O____O______O_ jtwc_sh SH221996 -20.2000 58.4000 35 0 -20.4000 58.4000 3 35 992 2.50000 3.00000 -20.2000 58.4000 TC 35 6 158
1996078S12072 1996 24 SI MM GUYLIANNE 1996-03-23 03:00:00 TS -20.5500 58.5224 main 76 80 P____P______P_ SH221996 -20.4850 58.5224 35 0 -20.6800 58.5226 3 32 993 -20.4850 58.5224 TC 35 6 162
1996078S12072 1996 24 SI MM GUYLIANNE 1996-03-23 06:00:00 TS -20.8333 58.6000 30 995 reunion main 99 99 O____O______O_ jtwc_sh SH221996 -20.8000 58.6000 35 0 -20.9000 58.6000 2 30 995 2.50000 2.50000 -20.8000 58.6000 TC 35 6 172
1996078S12072 1996 24 SI MM GUYLIANNE 1996-03-23 09:00:00 TS -21.1066 58.6066 main 115 115 P____P______P_ SH221996 -21.0850 58.5800 35 0 -21.1499 58.6598 2 30 995 -21.0850 58.5800 TC 35 6 185
1996078S12072 1996 24 SI MM GUYLIANNE 1996-03-23 12:00:00 TS -21.4000 58.5400 30 995 reunion main 130 130 O____O______O_ jtwc_sh SH221996 -21.4000 58.5000 35 0 -21.4000 58.6000 2 30 995 2.00000 2.50000 -21.4000 58.5000 TC 35 7 199
1996078S12072 1996 24 SI MM GUYLIANNE 1996-03-23 15:00:00 TS -21.7226 58.3739 main 152 152 P____P______P_ SH221996 -21.7800 58.4026 32 -1 -21.6651 58.3452 2 29 996 -21.7800 58.4026 TC 32 7 214
1996078S12072 1996 24 SI MM GUYLIANNE 1996-03-23 18:00:00 TS -22.0000 58.1000 28 997 reunion main 172 169 O____O______O_ jtwc_sh SH221996 -22.2000 58.3000 30 -1 -21.9000 58.0000 2 28 997 2.00000 2.50000 -22.2000 58.3000 TC 30 7 242
1996078S12072 1996 24 SI MM GUYLIANNE 1996-03-23 21:00:00 TS -22.0726 57.6625 main 178 178 _____P________ SH221996 -1 -22.0726 57.6625 2 26 998 TC 7 253
1996078S12072 1996 24 SI MM GUYLIANNE 1996-03-24 00:00:00 TS -22.2000 57.4000 25 1000 reunion main 190 184 _____O________ -1 -22.2000 57.4000 2 25 1000 1.50000 2.00000 4 236
1996078S12072 1996 24 SI MM GUYLIANNE 1996-03-24 03:00:00 TS -22.2924 57.3124 main 190 190 _____P________ -1 -22.2924 57.3124 2 25 1000 2 205
1996078S12072 1996 24 SI MM GUYLIANNE 1996-03-24 06:00:00 TS -22.4000 57.3000 25 1000 reunion main 197 197 _____O________ -1 -22.4000 57.3000 2 25 1000 1.50000 2.00000 3 189
1996078S12072 1996 24 SI MM GUYLIANNE 1996-03-24 09:00:00 TS -22.6000 57.2575 main 212 204 _____P________ -1 -22.6000 57.2575 2 22 1002 4 192
1996078S12072 1996 24 SI MM GUYLIANNE 1996-03-24 12:00:00 TS -22.8000 57.2000 20 1004 reunion main 221 221 _____O________ -1 -22.8000 57.2000 2 20 1004 1.50000 1.50000 3 206
1996078S12072 1996 24 SI MM GUYLIANNE 1996-03-24 15:00:00 TS -22.9000 57.1000 main 223 217 _____P________ -1 -22.9000 57.1000 2 3 223
1996078S12072 1996 24 SI MM GUYLIANNE 1996-03-24 18:00:00 TS -23.0000 57.0000 reunion main 226 226 _____O________ -1 -23.0000 57.0000 6 9.90000 3 208
1996078S12072 1996 24 SI MM GUYLIANNE 1996-03-24 21:00:00 TS -23.1850 56.9350 main 240 240 _____P________ -1 -23.1850 56.9350 6 4 192
1996078S12072 1996 24 SI MM GUYLIANNE 1996-03-25 00:00:00 TS -23.4000 56.9000 reunion main 260 260 _____O________ -1 -23.4000 56.9000 6 9.90000 4 186
1996078S12072 1996 24 SI MM GUYLIANNE 1996-03-25 03:00:00 TS -23.6050 56.8925 main 279 279 _____P________ -1 -23.6050 56.8925 6 4 0
1996078S12072 1996 24 SI MM GUYLIANNE 1996-03-25 06:00:00 TS -23.8000 56.9000 reunion main 299 _____O________ -1 -23.8000 56.9000 6 9.90000 4 0

About IBTrACS Database

This database is a web-friendly format of International Best Track Archive for Climate Stewardship (IBTrACS), a global best track data archive curated by NOAA dating back to 1842.

Updated: 2021-10-08